createdAt,value
2023-04-15T00:00:39.654Z,100730.78
2023-04-15T00:03:06.338Z,100718.59
2023-04-15T00:05:32.977Z,100715.03
2023-04-15T00:08:00.808Z,100726.41
2023-04-15T00:10:27.761Z,100722.00
2023-04-15T00:12:54.349Z,100725.69
2023-04-15T00:15:20.913Z,100719.56
2023-04-15T00:17:50.647Z,100702.91
2023-04-15T00:20:17.108Z,100716.00
2023-04-15T00:22:43.649Z,100710.84
2023-04-15T00:25:10.280Z,100697.69
2023-04-15T00:27:36.868Z,100696.91
2023-04-15T00:30:03.603Z,100695.06
2023-04-15T00:32:30.164Z,100698.75
2023-04-15T00:34:56.714Z,100690.03
2023-04-15T00:37:23.245Z,100704.03
2023-04-15T00:39:49.792Z,100704.88
2023-04-15T00:42:16.348Z,100705.78
2023-04-15T00:44:42.904Z,100705.06
2023-04-15T00:47:09.440Z,100691.06
2023-04-15T00:49:35.983Z,100700.81
2023-04-15T00:52:02.970Z,100705.34
2023-04-15T00:54:29.529Z,100710.47
2023-04-15T00:56:56.068Z,100691.06
2023-04-15T00:59:22.621Z,100689.28
2023-04-15T01:01:49.344Z,100690.97
2023-04-15T01:04:16.375Z,100685.66
2023-04-15T01:06:42.975Z,100693.53
2023-04-15T01:09:09.487Z,100694.34
2023-04-15T01:11:36.037Z,100691.75
2023-04-15T01:14:02.564Z,100695.28
2023-04-15T01:16:29.213Z,100697.09
2023-04-15T01:18:55.852Z,100686.44
2023-04-15T01:21:22.441Z,100699.63
2023-04-15T01:23:49.289Z,100698.84
2023-04-15T01:26:15.844Z,100684.88
2023-04-15T01:28:42.393Z,100692.69
2023-04-15T01:31:10.410Z,100697.19
2023-04-15T01:33:37.111Z,100678.66
2023-04-15T01:36:04.857Z,100674.28
2023-04-15T01:38:31.406Z,100674.44
2023-04-15T01:40:57.953Z,100670.94
2023-04-15T01:43:24.506Z,100677.78
2023-04-15T01:45:51.052Z,100680.41
2023-04-15T01:48:17.626Z,100671.63
2023-04-15T01:50:44.305Z,100668.00
2023-04-15T01:53:10.993Z,100660.25
2023-04-15T01:55:37.514Z,100660.06
2023-04-15T01:58:04.053Z,100667.19
2023-04-15T02:00:30.591Z,100668.97
2023-04-15T02:02:57.250Z,100659.28
2023-04-15T02:05:23.818Z,100656.72
2023-04-15T02:07:50.329Z,100641.75
2023-04-15T02:10:16.927Z,100655.75
2023-04-15T02:12:43.458Z,100639.97
2023-04-15T02:15:10.521Z,100649.69
2023-04-15T02:17:37.226Z,100648.00
2023-04-15T02:20:04.231Z,100646.16
2023-04-15T02:22:30.778Z,100655.00
2023-04-15T02:24:57.332Z,100658.34
2023-04-15T02:27:23.859Z,100660.13
2023-04-15T02:29:50.407Z,100653.19
2023-04-15T02:32:16.980Z,100665.44
2023-04-15T02:34:43.533Z,100661.16
2023-04-15T02:37:11.005Z,100660.31
2023-04-15T02:39:37.532Z,100657.59
2023-04-15T02:42:04.173Z,100656.72
2023-04-15T02:44:30.715Z,100652.31
2023-04-15T02:46:57.288Z,100653.19
2023-04-15T02:49:24.188Z,100653.19
2023-04-15T02:51:50.805Z,100652.31
2023-04-15T02:54:18.115Z,100656.63
2023-04-15T02:56:44.628Z,100652.16
2023-04-15T02:59:12.341Z,100645.94
2023-04-15T03:01:38.889Z,100653.00
2023-04-15T03:04:05.590Z,100651.25
2023-04-15T03:06:32.174Z,100640.69
2023-04-15T03:08:58.818Z,100659.13
2023-04-15T03:11:25.529Z,100641.56
2023-04-15T03:13:52.186Z,100650.28
2023-04-15T03:16:18.804Z,100639.75
2023-04-15T03:18:45.386Z,100644.13
2023-04-15T03:21:11.952Z,100645.94
2023-04-15T03:23:38.685Z,100658.16
2023-04-15T03:26:05.314Z,100649.22
2023-04-15T03:28:31.862Z,100644.97
2023-04-15T03:30:58.970Z,100641.47
2023-04-15T03:33:25.594Z,100648.47
2023-04-15T03:35:52.216Z,100650.38
2023-04-15T03:38:18.852Z,100661.78
2023-04-15T03:40:46.800Z,100645.13
2023-04-15T03:43:13.340Z,100644.19
2023-04-15T03:45:39.942Z,100649.28
2023-04-15T03:48:16.767Z,100639.72
2023-04-15T03:50:44.567Z,100649.28
2023-04-15T03:53:11.122Z,100652.00
2023-04-15T03:55:37.665Z,100645.94
2023-04-15T03:58:04.214Z,100642.38
2023-04-15T04:00:30.787Z,100659.84
2023-04-15T04:02:57.483Z,100645.69
2023-04-15T04:05:24.339Z,100650.94
2023-04-15T04:07:50.911Z,100650.00
2023-04-15T04:10:17.491Z,100645.66
2023-04-15T04:12:44.009Z,100650.16
2023-04-15T04:15:11.007Z,100652.97
2023-04-15T04:17:37.671Z,100658.16
2023-04-15T04:20:04.417Z,100655.47
2023-04-15T04:22:31.066Z,100657.19
2023-04-15T04:24:57.580Z,100659.91
2023-04-15T04:27:24.165Z,100667.84
2023-04-15T04:29:50.723Z,100653.00
2023-04-15T04:32:17.252Z,100658.28
2023-04-15T04:34:43.792Z,100660.03
2023-04-15T04:37:10.346Z,100659.91
2023-04-15T04:39:36.895Z,100648.56
2023-04-15T04:42:03.445Z,100655.63
2023-04-15T04:44:29.991Z,100662.63
2023-04-15T04:46:56.535Z,100658.13
2023-04-15T04:49:23.090Z,100664.28
2023-04-15T04:51:49.582Z,100659.84
2023-04-15T04:54:16.191Z,100674.69
2023-04-15T04:56:42.731Z,100662.41
2023-04-15T04:59:09.258Z,100674.69
2023-04-15T05:01:35.880Z,100656.25
2023-04-15T05:04:02.695Z,100657.09
2023-04-15T05:06:29.349Z,100654.34
2023-04-15T05:08:55.904Z,100660.44
2023-04-15T05:11:22.455Z,100654.31
2023-04-15T05:13:48.996Z,100652.53
2023-04-15T05:16:15.548Z,100651.66
2023-04-15T05:18:42.232Z,100662.22
2023-04-15T05:21:08.816Z,100656.03
2023-04-15T05:23:35.363Z,100658.63
2023-04-15T05:26:01.956Z,100669.16
2023-04-15T05:28:28.555Z,100666.50
2023-04-15T05:30:55.081Z,100665.63
2023-04-15T05:33:21.679Z,100653.38
2023-04-15T05:35:48.264Z,100669.00
2023-04-15T05:38:14.788Z,100673.47
2023-04-15T05:40:41.314Z,100675.19
2023-04-15T05:43:07.865Z,100664.75
2023-04-15T05:45:34.420Z,100675.09
2023-04-15T05:48:01.050Z,100676.78
2023-04-15T05:50:27.676Z,100665.44
2023-04-15T05:52:54.262Z,100666.34
2023-04-15T05:55:20.789Z,100669.81
2023-04-15T05:57:47.315Z,100666.38
2023-04-15T06:00:14.376Z,100666.38
2023-04-15T06:02:41.027Z,100668.03
2023-04-15T06:05:08.068Z,100675.03
2023-04-15T06:07:34.737Z,100675.75
2023-04-15T06:10:01.258Z,100680.19
2023-04-15T06:12:27.868Z,100694.25
2023-04-15T06:14:54.406Z,100697.81
2023-04-15T06:17:21.068Z,100699.56
2023-04-15T06:19:47.648Z,100698.59
2023-04-15T06:22:14.211Z,100713.66
2023-04-15T06:24:40.750Z,100689.91
2023-04-15T06:27:07.287Z,100688.22
2023-04-15T06:29:33.832Z,100704.94
2023-04-15T06:32:00.426Z,100704.91
2023-04-15T06:34:27.050Z,100711.22
2023-04-15T06:36:53.604Z,100705.91
2023-04-15T06:39:20.156Z,100701.53
2023-04-15T06:41:46.777Z,100709.47
2023-04-15T06:44:13.308Z,100719.00
2023-04-15T06:46:39.860Z,100708.38
2023-04-15T06:49:06.373Z,100708.31
2023-04-15T06:51:34.279Z,100701.97
2023-04-15T06:54:00.832Z,100718.63
2023-04-15T06:56:27.375Z,100714.38
2023-04-15T06:58:53.980Z,100703.72
2023-04-15T07:01:20.575Z,100702.81
2023-04-15T07:03:47.148Z,100712.53
2023-04-15T07:06:13.722Z,100730.94
2023-04-15T07:08:40.329Z,100729.16
2023-04-15T07:11:06.928Z,100719.38
2023-04-15T07:13:33.854Z,100730.91
2023-04-15T07:16:00.417Z,100736.22
2023-04-15T07:18:26.952Z,100736.19
2023-04-15T07:20:53.455Z,100737.88
2023-04-15T07:23:20.036Z,100745.59
2023-04-15T07:25:46.633Z,100746.56
2023-04-15T07:28:13.184Z,100741.25
2023-04-15T07:30:39.749Z,100741.19
2023-04-15T07:33:06.347Z,100736.69
2023-04-15T07:35:32.910Z,100752.53
2023-04-15T07:37:59.462Z,100742.75
2023-04-15T07:40:26.048Z,100739.94
2023-04-15T07:42:52.569Z,100748.69
2023-04-15T07:45:19.124Z,100743.50
2023-04-15T07:47:45.748Z,100756.53
2023-04-15T07:50:12.342Z,100746.88
2023-04-15T07:52:38.928Z,100768.88
2023-04-15T07:55:09.673Z,100754.06
2023-04-15T07:57:36.373Z,100765.47
2023-04-15T08:00:03.313Z,100763.69
2023-04-15T08:02:30.081Z,100762.00
2023-04-15T08:04:56.744Z,100762.03
2023-04-15T08:07:23.675Z,100770.75
2023-04-15T08:09:50.225Z,100783.00
2023-04-15T08:12:16.751Z,100768.94
2023-04-15T08:14:44.438Z,100768.03
2023-04-15T08:17:11.088Z,100762.72
2023-04-15T08:19:37.656Z,100768.88
2023-04-15T08:22:04.190Z,100770.63
2023-04-15T08:24:31.526Z,100772.38
2023-04-15T08:26:58.068Z,100767.97
2023-04-15T08:29:24.654Z,100776.75
2023-04-15T08:31:51.222Z,100776.75
2023-04-15T08:34:17.896Z,100777.59
2023-04-15T08:36:44.447Z,100792.59
2023-04-15T08:39:10.971Z,100777.59
2023-04-15T08:41:41.291Z,100782.84
2023-04-15T08:44:07.886Z,100788.88
2023-04-15T08:46:34.451Z,100786.16
2023-04-15T08:49:01.506Z,100785.28
2023-04-15T08:51:28.405Z,100787.72
2023-04-15T08:53:55.005Z,100805.38
2023-04-15T08:56:24.549Z,100805.34
2023-04-15T08:58:51.155Z,100807.16
2023-04-15T09:01:17.737Z,100803.66
2023-04-15T09:03:44.501Z,100807.94
2023-04-15T09:06:11.627Z,100808.91
2023-04-15T09:08:38.231Z,100819.25
2023-04-15T09:11:04.788Z,100819.00
2023-04-15T09:13:31.421Z,100824.16
2023-04-15T09:15:57.936Z,100827.59
2023-04-15T09:18:31.675Z,100820.59
2023-04-15T09:21:11.039Z,100833.56
2023-04-15T09:23:38.778Z,100833.50
2023-04-15T09:26:05.515Z,100828.84
2023-04-15T09:28:32.125Z,100833.19
2023-04-15T09:30:58.954Z,100837.75
2023-04-15T09:33:25.927Z,100823.75
2023-04-15T09:36:03.784Z,100832.41
2023-04-15T09:38:30.619Z,100832.41
2023-04-15T09:40:57.331Z,100819.97
2023-04-15T09:43:23.927Z,100819.59
2023-04-15T09:45:54.405Z,100815.66
2023-04-15T09:48:22.380Z,100818.78
2023-04-15T09:50:49.530Z,100825.44
2023-04-15T09:53:20.233Z,100823.91
2023-04-15T09:55:50.717Z,100821.03
2023-04-15T09:58:21.452Z,100822.97
2023-04-15T10:00:48.329Z,100835.97
2023-04-15T10:03:35.331Z,100829.53
2023-04-15T10:06:02.094Z,100832.69
2023-04-15T10:08:30.973Z,100836.00
2023-04-15T10:10:57.513Z,100835.63
2023-04-15T10:13:25.286Z,100838.13
2023-04-15T10:16:05.486Z,100841.75
2023-04-15T10:18:34.584Z,100842.03
2023-04-15T10:21:01.450Z,100847.19
2023-04-15T10:23:28.056Z,100846.53
2023-04-15T10:25:54.612Z,100854.19
2023-04-15T10:28:21.276Z,100843.72
2023-04-15T10:30:47.828Z,100844.16
2023-04-15T10:33:14.395Z,100855.88
2023-04-15T10:35:40.904Z,100846.00
2023-04-15T10:38:39.178Z,100861.59
2023-04-15T10:41:21.759Z,100861.81
2023-04-15T10:43:54.960Z,100849.59
2023-04-15T10:46:23.215Z,100853.72
2023-04-15T10:48:50.732Z,100849.47
2023-04-15T10:51:17.356Z,100848.41
2023-04-15T10:53:43.882Z,100851.94
2023-04-15T10:56:10.444Z,100858.72
2023-04-15T10:58:43.460Z,100858.41
2023-04-15T11:01:10.022Z,100844.63
2023-04-15T11:03:37.596Z,100840.78
2023-04-15T11:06:04.686Z,100861.38
2023-04-15T11:08:55.554Z,100857.84
2023-04-15T11:11:22.402Z,100857.72
2023-04-15T11:13:49.963Z,100854.81
2023-04-15T11:16:16.559Z,100857.94
2023-04-15T11:18:43.149Z,100857.22
2023-04-15T11:21:09.697Z,100861.47
2023-04-15T11:23:40.924Z,100867.97
2023-04-15T11:26:08.417Z,100873.44
2023-04-15T11:28:36.286Z,100861.34
2023-04-15T11:31:16.584Z,100856.88
2023-04-15T11:33:59.830Z,100875.31
2023-04-15T11:36:27.468Z,100859.03
2023-04-15T11:38:54.056Z,100864.69
2023-04-15T11:41:21.471Z,100875.75
2023-04-15T11:43:48.050Z,100890.38
2023-04-15T11:46:14.728Z,100896.97
2023-04-15T11:48:43.421Z,100885.78
2023-04-15T11:51:09.963Z,100893.81
2023-04-15T11:53:48.865Z,100901.75
2023-04-15T11:56:19.568Z,100893.00
2023-04-15T11:58:46.350Z,100906.22
2023-04-15T12:01:13.009Z,100913.22
2023-04-15T12:03:43.316Z,100909.06
2023-04-15T12:06:23.306Z,100916.09
2023-04-15T12:08:49.717Z,100913.44
2023-04-15T12:11:20.313Z,100903.47
2023-04-15T12:13:50.424Z,100903.88
2023-04-15T12:16:18.269Z,100908.72
2023-04-15T12:18:50.766Z,100914.78
2023-04-15T12:21:19.684Z,100926.31
2023-04-15T12:23:50.352Z,100928.38
2023-04-15T12:26:17.449Z,100927.09
2023-04-15T12:28:43.994Z,100939.53
2023-04-15T12:31:11.399Z,100936.44
2023-04-15T12:33:38.063Z,100943.50
2023-04-15T12:36:04.836Z,100943.69
2023-04-15T12:38:31.428Z,100952.19
2023-04-15T12:40:58.609Z,100953.03
2023-04-15T12:43:25.416Z,100953.69
2023-04-15T12:45:52.016Z,100965.19
2023-04-15T12:48:18.598Z,100951.94
2023-04-15T12:50:45.160Z,100964.31
2023-04-15T12:53:11.728Z,100960.97
2023-04-15T12:55:38.297Z,100964.56
2023-04-15T12:58:04.886Z,100979.44
2023-04-15T13:00:34.381Z,100961.78
2023-04-15T13:03:00.869Z,100977.50
2023-04-15T13:05:27.450Z,100969.47
2023-04-15T13:07:54.056Z,100976.94
2023-04-15T13:10:20.571Z,100976.41
2023-04-15T13:12:47.079Z,100967.88
2023-04-15T13:15:13.618Z,100974.00
2023-04-15T13:17:40.162Z,100975.63
2023-04-15T13:20:06.920Z,100973.88
2023-04-15T13:22:33.500Z,100981.56
2023-04-15T13:25:00.026Z,100990.34
2023-04-15T13:27:26.558Z,100984.22
2023-04-15T13:29:53.879Z,100989.34
2023-04-15T13:32:21.005Z,100975.22
2023-04-15T13:34:47.575Z,100978.38
2023-04-15T13:37:14.123Z,100985.97
2023-04-15T13:39:40.658Z,100986.16
2023-04-15T13:42:07.133Z,100986.03
2023-04-15T13:44:33.749Z,100989.13
2023-04-15T13:47:00.280Z,100992.75
2023-04-15T13:49:26.849Z,100999.19
2023-04-15T13:51:53.355Z,100994.31
2023-04-15T13:54:19.921Z,100996.28
2023-04-15T13:56:46.492Z,101003.19
2023-04-15T13:59:13.171Z,101001.69
2023-04-15T14:01:39.812Z,101003.34
2023-04-15T14:04:06.842Z,101001.94
2023-04-15T14:06:33.588Z,101002.66
2023-04-15T14:09:00.162Z,101012.59
2023-04-15T14:11:26.702Z,101014.91
2023-04-15T14:13:53.259Z,101003.03
2023-04-15T14:16:19.936Z,101022.19
2023-04-15T14:18:46.502Z,101005.53
2023-04-15T14:21:13.019Z,101018.28
2023-04-15T14:23:39.562Z,101023.41
2023-04-15T14:26:06.118Z,101016.69
2023-04-15T14:28:32.667Z,101032.00
2023-04-15T14:30:59.283Z,101026.72
2023-04-15T14:33:25.835Z,101031.66
2023-04-15T14:35:52.436Z,101046.06
2023-04-15T14:38:18.966Z,101037.59
2023-04-15T14:40:45.507Z,101035.22
2023-04-15T14:43:12.060Z,101054.69
2023-04-15T14:45:40.562Z,101048.28
2023-04-15T14:48:09.919Z,101052.47
2023-04-15T14:50:36.502Z,101072.13
2023-04-15T14:53:03.024Z,101067.38
2023-04-15T14:55:29.577Z,101074.25
2023-04-15T14:57:56.138Z,101060.41
2023-04-15T15:00:22.668Z,101068.38
2023-04-15T15:02:49.318Z,101075.88
2023-04-15T15:05:16.006Z,101076.06
2023-04-15T15:07:42.961Z,101081.44
2023-04-15T15:10:09.500Z,101084.28
2023-04-15T15:12:36.013Z,101095.34
2023-04-15T15:15:09.174Z,101097.19
2023-04-15T15:17:42.607Z,101096.53
2023-04-15T15:20:09.542Z,101086.19
2023-04-15T15:22:36.102Z,101099.63
2023-04-15T15:25:02.667Z,101093.53
2023-04-15T15:27:29.204Z,101100.81
2023-04-15T15:29:56.543Z,101099.25
2023-04-15T15:32:23.173Z,101095.59
2023-04-15T15:34:49.797Z,101107.09
2023-04-15T15:37:16.374Z,101103.31
2023-04-15T15:39:42.918Z,101098.56
2023-04-15T15:42:09.523Z,101113.13
2023-04-15T15:44:36.072Z,101107.94
2023-04-15T15:47:02.654Z,101116.59
2023-04-15T15:49:29.363Z,101125.78
2023-04-15T15:51:56.204Z,101115.75
2023-04-15T15:54:22.898Z,101127.50
2023-04-15T15:56:49.428Z,101132.03
2023-04-15T15:59:16.050Z,101130.50
2023-04-15T16:01:43.345Z,101130.00
2023-04-15T16:04:10.117Z,101141.66
2023-04-15T16:06:36.863Z,101139.91
2023-04-15T16:09:03.723Z,101144.09
2023-04-15T16:11:30.430Z,101143.31
2023-04-15T16:13:57.194Z,101152.25
2023-04-15T16:16:23.878Z,101162.19
2023-04-15T16:18:50.508Z,101153.59
2023-04-15T16:21:17.051Z,101161.63
2023-04-15T16:23:43.586Z,101161.94
2023-04-15T16:26:10.189Z,101170.06
2023-04-15T16:28:36.798Z,101166.75
2023-04-15T16:31:03.492Z,101169.50
2023-04-15T16:33:30.089Z,101187.38
2023-04-15T16:35:56.681Z,101178.91
2023-04-15T16:38:23.261Z,101194.03
2023-04-15T16:40:49.797Z,101177.88
2023-04-15T16:43:16.623Z,101185.25
2023-04-15T16:45:43.175Z,101205.88
2023-04-15T16:48:09.726Z,101190.16
2023-04-15T16:50:36.943Z,101194.69
2023-04-15T16:53:03.524Z,101208.88
2023-04-15T16:55:30.101Z,101217.03
2023-04-15T16:58:01.624Z,101206.59
2023-04-15T17:00:30.570Z,101213.94
2023-04-15T17:02:57.490Z,101218.56
2023-04-15T17:05:24.299Z,101224.66
2023-04-15T17:07:50.802Z,101212.34
2023-04-15T17:10:17.497Z,101210.66
2023-04-15T17:12:44.050Z,101226.78
2023-04-15T17:15:10.617Z,101226.94
2023-04-15T17:17:37.277Z,101236.72
2023-04-15T17:20:03.966Z,101232.47
2023-04-15T17:22:30.540Z,101236.88
2023-04-15T17:24:57.134Z,101239.59
2023-04-15T17:27:23.680Z,101233.59
2023-04-15T17:29:50.237Z,101244.16
2023-04-15T17:32:16.903Z,101242.59
2023-04-15T17:34:50.454Z,101242.63
2023-04-15T17:37:17.756Z,101247.22
2023-04-15T17:39:44.317Z,101265.09
2023-04-15T17:42:11.329Z,101257.13
2023-04-15T17:44:37.922Z,101257.13
2023-04-15T17:47:04.446Z,101263.31
2023-04-15T17:49:30.983Z,101264.50
2023-04-15T17:51:57.586Z,101266.41
2023-04-15T17:54:24.203Z,101259.34
2023-04-15T17:56:50.780Z,101277.06
2023-04-15T17:59:17.472Z,101268.41
2023-04-15T18:01:44.133Z,101279.75
2023-04-15T18:04:11.187Z,101281.59
2023-04-15T18:06:38.312Z,101282.69
2023-04-15T18:09:05.505Z,101282.84
2023-04-15T18:11:32.779Z,101291.69
2023-04-15T18:13:59.626Z,101288.31
2023-04-15T18:16:26.449Z,101291.69
2023-04-15T18:18:53.075Z,101285.66
2023-04-15T18:21:19.628Z,101300.91
2023-04-15T18:23:46.246Z,101306.25
2023-04-15T18:26:13.277Z,101329.13
2023-04-15T18:28:39.871Z,101329.22
2023-04-15T18:31:06.547Z,101320.63
2023-04-15T18:33:33.108Z,101318.88
2023-04-15T18:35:59.689Z,101327.84
2023-04-15T18:38:26.251Z,101341.16
2023-04-15T18:40:52.780Z,101328.97
2023-04-15T18:43:19.307Z,101334.53
2023-04-15T18:45:45.944Z,101354.13
2023-04-15T18:48:12.528Z,101337.44
2023-04-15T18:50:39.056Z,101347.34
2023-04-15T18:53:05.602Z,101360.75
2023-04-15T18:55:32.206Z,101371.19
2023-04-15T18:58:08.475Z,101367.69
2023-04-15T19:00:36.072Z,101365.31
2023-04-15T19:03:02.598Z,101363.59
2023-04-15T19:05:30.050Z,101373.44
2023-04-15T19:07:59.131Z,101377.19
2023-04-15T19:10:27.043Z,101381.72
2023-04-15T19:12:54.156Z,101374.72
2023-04-15T19:15:20.784Z,101388.88
2023-04-15T19:17:47.341Z,101377.50
2023-04-15T19:20:14.019Z,101395.25
2023-04-15T19:22:40.594Z,101382.00
2023-04-15T19:25:07.416Z,101383.75
2023-04-15T19:27:33.960Z,101390.97
2023-04-15T19:30:00.526Z,101414.03
2023-04-15T19:32:27.113Z,101410.56
2023-04-15T19:34:53.681Z,101414.19
2023-04-15T19:37:20.196Z,101426.72
2023-04-15T19:39:46.878Z,101421.50
2023-04-15T19:42:13.469Z,101433.00
2023-04-15T19:44:40.027Z,101426.03
2023-04-15T19:47:08.072Z,101430.50
2023-04-15T19:49:34.614Z,101431.38
2023-04-15T19:52:01.154Z,101436.63
2023-04-15T19:54:28.072Z,101448.06
2023-04-15T19:56:54.577Z,101445.63
2023-04-15T19:59:21.137Z,101453.59
2023-04-15T20:01:47.807Z,101446.47
2023-04-15T20:04:14.597Z,101453.66
2023-04-15T20:06:41.315Z,101450.16
2023-04-15T20:09:10.381Z,101442.41
2023-04-15T20:12:46.227Z,101443.44
2023-04-15T20:14:24.318Z,101460.22
2023-04-15T20:16:50.865Z,101455.09
2023-04-15T20:19:17.450Z,101448.91
2023-04-15T20:21:44.063Z,101464.84
2023-04-15T20:24:11.112Z,101467.50
2023-04-15T20:26:37.717Z,101476.38
2023-04-15T20:29:04.384Z,101480.84
2023-04-15T20:31:31.260Z,101472.13
2023-04-15T20:33:57.817Z,101471.22
2023-04-15T20:36:24.412Z,101483.56
2023-04-15T20:38:51.050Z,101494.19
2023-04-15T20:41:17.590Z,101482.69
2023-04-15T20:43:44.142Z,101480.97
2023-04-15T20:46:20.515Z,101499.56
2023-04-15T20:48:47.857Z,101483.81
2023-04-15T20:51:14.453Z,101496.16
2023-04-15T20:53:40.982Z,101479.44
2023-04-15T20:56:07.533Z,101488.31
2023-04-15T20:58:34.038Z,101488.31
2023-04-15T21:01:00.785Z,101488.41
2023-04-15T21:03:27.683Z,101482.25
2023-04-15T21:05:54.319Z,101490.34
2023-04-15T21:08:20.910Z,101487.72
2023-04-15T21:10:47.468Z,101491.28
2023-04-15T21:13:14.095Z,101500.00
2023-04-15T21:15:40.637Z,101497.38
2023-04-15T21:18:07.234Z,101491.28
2023-04-15T21:20:33.854Z,101501.94
2023-04-15T21:23:00.470Z,101502.88
2023-04-15T21:25:26.967Z,101505.63
2023-04-15T21:27:53.504Z,101518.81
2023-04-15T21:30:20.083Z,101506.53
2023-04-15T21:32:46.739Z,101527.81
2023-04-15T21:35:13.438Z,101514.53
2023-04-15T21:37:39.924Z,101518.06
2023-04-15T21:40:07.138Z,101522.47
2023-04-15T21:42:33.682Z,101528.53
2023-04-15T21:45:00.213Z,101513.59
2023-04-15T21:47:26.850Z,101531.41
2023-04-15T21:49:53.492Z,101525.41
2023-04-15T21:52:20.008Z,101532.50
2023-04-15T21:54:46.609Z,101534.31
2023-04-15T21:57:13.313Z,101530.78
2023-04-15T21:59:39.868Z,101534.34
2023-04-15T22:02:06.430Z,101538.78
2023-04-15T22:04:33.111Z,101547.63
2023-04-15T22:06:59.670Z,101546.75
2023-04-15T22:09:26.421Z,101540.66
2023-04-15T22:11:52.934Z,101544.19
2023-04-15T22:14:19.449Z,101541.53
2023-04-15T22:16:46.117Z,101541.53
2023-04-15T22:19:12.679Z,101541.59
2023-04-15T22:21:39.216Z,101543.34
2023-04-15T22:24:38.793Z,101544.25
2023-04-15T22:26:52.456Z,101561.94
2023-04-15T22:29:19.014Z,101561.94
2023-04-15T22:31:45.553Z,101555.75
2023-04-15T22:34:12.302Z,101557.47
2023-04-15T22:36:38.861Z,101565.41
2023-04-15T22:39:05.546Z,101561.94
2023-04-15T22:41:32.303Z,101562.03
2023-04-15T22:43:58.840Z,101555.81
2023-04-15T22:46:25.350Z,101555.81
2023-04-15T22:48:51.912Z,101566.41
2023-04-15T22:51:22.378Z,101571.69
2023-04-15T22:53:49.739Z,101562.00
2023-04-15T22:56:19.148Z,101574.44
2023-04-15T22:58:45.698Z,101579.78
2023-04-15T23:01:12.269Z,101565.69
2023-04-15T23:03:53.709Z,101578.91
2023-04-15T23:06:23.886Z,101575.44
2023-04-15T23:08:51.079Z,101576.41
2023-04-15T23:11:17.623Z,101580.78
2023-04-15T23:13:44.176Z,101596.63
2023-04-15T23:16:10.836Z,101598.41
2023-04-15T23:18:37.437Z,101611.69
2023-04-15T23:21:04.176Z,101602.91
2023-04-15T23:23:30.714Z,101601.13
2023-04-15T23:25:57.257Z,101607.34
2023-04-15T23:28:23.846Z,101611.72
2023-04-15T23:30:50.377Z,101606.50
2023-04-15T23:33:16.969Z,101611.00
2023-04-15T23:35:43.479Z,101614.59
2023-04-15T23:38:10.021Z,101624.28
2023-04-15T23:40:36.574Z,101614.63
2023-04-15T23:43:03.094Z,101620.88
2023-04-15T23:45:29.643Z,101620.84
2023-04-15T23:47:56.231Z,101629.72
2023-04-15T23:50:22.839Z,101617.38
2023-04-15T23:52:49.343Z,101614.72
2023-04-15T23:55:15.923Z,101620.84
2023-04-15T23:57:42.489Z,101627.97
